Moore, Montana
Current Conditions -  °F | °C
As of 4:54 PM on Saturday 20 Dec 2014 (Local Time) from KLWT Reporting Station
Scattered Clouds Scattered Clouds  
Wind Chill: 27°   Ceiling: Unl
Heat Index: 36°   Visibility: 10mi
Dew Point: 25°   Wind: 14mph
Humidity: 64%   Direction: 220°SW
Pressure: 29.75"   Gusts: NA
Location:  46.98°N, 109.7°W
Report Text: KLWT 202354Z AUTO 22012KT 10SM SCT095 02/M04 A2975 RMK AO2 SLP096 T00221039 10061 20022 58009
Loading
Personal Weather Stations






























Interactive Weather Map New forecast layout! Learn more

10-Day Weather Forecast

Advertisements
Track Severe Weather on mobile